sensor_id;sensor_type;location;lat;lon;timestamp;P1;durP1;ratioP1;P2;durP2;ratioP2
21281;SDS011;10800;53.096;18.328;2023-06-14T00:03:00;7.47;;;3.43;;
21281;SDS011;10800;53.096;18.328;2023-06-14T00:08:10;4.17;;;2.97;;
21281;SDS011;10800;53.096;18.328;2023-06-14T00:13:16;11.47;;;3.30;;
21281;SDS011;10800;53.096;18.328;2023-06-14T00:18:22;4.77;;;3.30;;
21281;SDS011;10800;53.096;18.328;2023-06-14T00:23:28;7.40;;;3.87;;
21281;SDS011;10800;53.096;18.328;2023-06-14T00:28:34;9.60;;;4.33;;
21281;SDS011;10800;53.096;18.328;2023-06-14T00:33:40;4.20;;;3.17;;
21281;SDS011;10800;53.096;18.328;2023-06-14T00:38:45;7.90;;;2.87;;
21281;SDS011;10800;53.096;18.328;2023-06-14T00:43:51;4.83;;;3.07;;
21281;SDS011;10800;53.096;18.328;2023-06-14T00:48:58;3.27;;;2.97;;
21281;SDS011;10800;53.096;18.328;2023-06-14T00:54:07;4.67;;;3.40;;
21281;SDS011;10800;53.096;18.328;2023-06-14T01:04:21;8.73;;;3.37;;
21281;SDS011;10800;53.096;18.328;2023-06-14T01:14:43;6.90;;;3.13;;
21281;SDS011;10800;53.096;18.328;2023-06-14T01:19:52;7.50;;;3.37;;
21281;SDS011;10800;53.096;18.328;2023-06-14T01:24:59;24.37;;;3.50;;
21281;SDS011;10800;53.096;18.328;2023-06-14T01:30:05;6.83;;;3.57;;
21281;SDS011;10800;53.096;18.328;2023-06-14T01:35:13;9.27;;;3.67;;
21281;SDS011;10800;53.096;18.328;2023-06-14T01:40:20;9.23;;;4.83;;
21281;SDS011;10800;53.096;18.328;2023-06-14T01:45:26;9.80;;;4.03;;
21281;SDS011;10800;53.096;18.328;2023-06-14T01:50:33;6.00;;;3.53;;
21281;SDS011;10800;53.096;18.328;2023-06-14T01:55:39;4.47;;;3.27;;
21281;SDS011;10800;53.096;18.328;2023-06-14T02:00:46;4.60;;;3.40;;
21281;SDS011;10800;53.096;18.328;2023-06-14T02:05:51;7.17;;;4.23;;
21281;SDS011;10800;53.096;18.328;2023-06-14T02:10:59;8.23;;;4.40;;
21281;SDS011;10800;53.096;18.328;2023-06-14T02:16:05;4.53;;;3.57;;
21281;SDS011;10800;53.096;18.328;2023-06-14T02:21:11;7.57;;;4.07;;
21281;SDS011;10800;53.096;18.328;2023-06-14T02:26:16;6.43;;;4.13;;
21281;SDS011;10800;53.096;18.328;2023-06-14T02:31:22;5.37;;;3.63;;
21281;SDS011;10800;53.096;18.328;2023-06-14T02:36:28;8.30;;;3.47;;
21281;SDS011;10800;53.096;18.328;2023-06-14T02:41:34;6.60;;;3.47;;
21281;SDS011;10800;53.096;18.328;2023-06-14T02:46:40;6.33;;;3.33;;
21281;SDS011;10800;53.096;18.328;2023-06-14T02:51:47;9.07;;;3.30;;
21281;SDS011;10800;53.096;18.328;2023-06-14T02:56:53;11.37;;;4.13;;
21281;SDS011;10800;53.096;18.328;2023-06-14T03:01:58;7.27;;;4.50;;
21281;SDS011;10800;53.096;18.328;2023-06-14T03:07:04;6.13;;;3.90;;
21281;SDS011;10800;53.096;18.328;2023-06-14T03:12:16;7.00;;;3.83;;
21281;SDS011;10800;53.096;18.328;2023-06-14T03:17:21;7.17;;;3.83;;
21281;SDS011;10800;53.096;18.328;2023-06-14T03:22:28;6.13;;;3.30;;
21281;SDS011;10800;53.096;18.328;2023-06-14T03:27:34;4.23;;;3.10;;
21281;SDS011;10800;53.096;18.328;2023-06-14T03:32:40;7.47;;;3.03;;
21281;SDS011;10800;53.096;18.328;2023-06-14T03:37:46;5.80;;;3.17;;
21281;SDS011;10800;53.096;18.328;2023-06-14T03:42:53;14.60;;;4.93;;
21281;SDS011;10800;53.096;18.328;2023-06-14T03:47:59;5.67;;;3.10;;
21281;SDS011;10800;53.096;18.328;2023-06-14T03:53:05;11.63;;;3.80;;
21281;SDS011;10800;53.096;18.328;2023-06-14T03:58:11;6.27;;;3.00;;
21281;SDS011;10800;53.096;18.328;2023-06-14T04:03:17;5.17;;;2.60;;
21281;SDS011;10800;53.096;18.328;2023-06-14T04:08:23;6.80;;;3.50;;
21281;SDS011;10800;53.096;18.328;2023-06-14T04:13:29;9.07;;;5.77;;
21281;SDS011;10800;53.096;18.328;2023-06-14T04:18:42;5.73;;;4.17;;
21281;SDS011;10800;53.096;18.328;2023-06-14T04:23:43;10.03;;;4.33;;
21281;SDS011;10800;53.096;18.328;2023-06-14T04:28:50;7.83;;;4.27;;
21281;SDS011;10800;53.096;18.328;2023-06-14T04:33:56;10.63;;;4.23;;
21281;SDS011;10800;53.096;18.328;2023-06-14T04:39:05;6.80;;;3.93;;
21281;SDS011;10800;53.096;18.328;2023-06-14T04:44:10;8.83;;;4.53;;
21281;SDS011;10800;53.096;18.328;2023-06-14T04:49:16;9.93;;;3.87;;
21281;SDS011;10800;53.096;18.328;2023-06-14T04:54:22;11.63;;;5.27;;
21281;SDS011;10800;53.096;18.328;2023-06-14T04:59:31;12.30;;;5.50;;
21281;SDS011;10800;53.096;18.328;2023-06-14T05:04:38;6.53;;;4.50;;
21281;SDS011;10800;53.096;18.328;2023-06-14T05:09:44;8.63;;;3.53;;
21281;SDS011;10800;53.096;18.328;2023-06-14T05:14:50;8.83;;;4.57;;
21281;SDS011;10800;53.096;18.328;2023-06-14T05:19:55;6.13;;;4.13;;
21281;SDS011;10800;53.096;18.328;2023-06-14T05:25:01;9.20;;;4.30;;
21281;SDS011;10800;53.096;18.328;2023-06-14T05:30:07;6.23;;;4.43;;
21281;SDS011;10800;53.096;18.328;2023-06-14T05:35:13;13.60;;;4.33;;
21281;SDS011;10800;53.096;18.328;2023-06-14T05:40:20;6.70;;;4.47;;
21281;SDS011;10800;53.096;18.328;2023-06-14T05:45:25;6.47;;;4.13;;
21281;SDS011;10800;53.096;18.328;2023-06-14T05:50:31;14.17;;;5.20;;
21281;SDS011;10800;53.096;18.328;2023-06-14T05:55:36;9.90;;;3.63;;
21281;SDS011;10800;53.096;18.328;2023-06-14T06:00:43;5.50;;;3.10;;
21281;SDS011;10800;53.096;18.328;2023-06-14T06:05:50;5.57;;;3.77;;
21281;SDS011;10800;53.096;18.328;2023-06-14T06:10:55;7.33;;;3.37;;
21281;SDS011;10800;53.096;18.328;2023-06-14T06:16:01;8.63;;;3.17;;
21281;SDS011;10800;53.096;18.328;2023-06-14T06:21:08;8.47;;;4.33;;
21281;SDS011;10800;53.096;18.328;2023-06-14T06:26:14;7.60;;;2.90;;
21281;SDS011;10800;53.096;18.328;2023-06-14T06:31:20;8.83;;;3.97;;
21281;SDS011;10800;53.096;18.328;2023-06-14T06:36:26;10.53;;;4.23;;
21281;SDS011;10800;53.096;18.328;2023-06-14T06:41:33;5.67;;;2.83;;
21281;SDS011;10800;53.096;18.328;2023-06-14T06:46:40;10.47;;;3.37;;
21281;SDS011;10800;53.096;18.328;2023-06-14T06:52:21;5.77;;;4.13;;
21281;SDS011;10800;53.096;18.328;2023-06-14T06:57:06;7.30;;;3.80;;
21281;SDS011;10800;53.096;18.328;2023-06-14T07:02:11;10.47;;;3.50;;
21281;SDS011;10800;53.096;18.328;2023-06-14T07:07:17;7.83;;;4.50;;
21281;SDS011;10800;53.096;18.328;2023-06-14T07:12:22;7.63;;;3.73;;
21281;SDS011;10800;53.096;18.328;2023-06-14T07:17:28;8.97;;;4.87;;
21281;SDS011;10800;53.096;18.328;2023-06-14T07:22:34;6.03;;;3.50;;
21281;SDS011;10800;53.096;18.328;2023-06-14T07:27:42;6.47;;;3.73;;
21281;SDS011;10800;53.096;18.328;2023-06-14T07:32:49;7.93;;;3.67;;
21281;SDS011;10800;53.096;18.328;2023-06-14T07:37:55;13.60;;;4.03;;
21281;SDS011;10800;53.096;18.328;2023-06-14T07:43:01;14.43;;;4.93;;
21281;SDS011;10800;53.096;18.328;2023-06-14T07:48:06;10.40;;;4.27;;
21281;SDS011;10800;53.096;18.328;2023-06-14T07:53:12;7.93;;;3.97;;
21281;SDS011;10800;53.096;18.328;2023-06-14T07:58:17;6.35;;;3.85;;
21281;SDS011;10800;53.096;18.328;2023-06-14T08:03:23;10.00;;;3.47;;
21281;SDS011;10800;53.096;18.328;2023-06-14T08:08:29;7.80;;;3.87;;
21281;SDS011;10800;53.096;18.328;2023-06-14T08:13:35;5.23;;;3.37;;
21281;SDS011;10800;53.096;18.328;2023-06-14T08:18:40;4.97;;;3.27;;
21281;SDS011;10800;53.096;18.328;2023-06-14T08:23:46;4.80;;;3.12;;
21281;SDS011;10800;53.096;18.328;2023-06-14T08:28:52;7.15;;;3.35;;
21281;SDS011;10800;53.096;18.328;2023-06-14T08:34:00;4.30;;;2.85;;
21281;SDS011;10800;53.096;18.328;2023-06-14T08:39:09;4.10;;;2.33;;
21281;SDS011;10800;53.096;18.328;2023-06-14T08:44:16;6.60;;;3.05;;
21281;SDS011;10800;53.096;18.328;2023-06-14T08:49:21;6.37;;;2.60;;
21281;SDS011;10800;53.096;18.328;2023-06-14T08:54:27;4.60;;;2.98;;
21281;SDS011;10800;53.096;18.328;2023-06-14T08:59:39;4.35;;;2.58;;
21281;SDS011;10800;53.096;18.328;2023-06-14T09:04:49;3.72;;;2.52;;
21281;SDS011;10800;53.096;18.328;2023-06-14T09:10:12;5.53;;;3.53;;
21281;SDS011;10800;53.096;18.328;2023-06-14T09:15:14;6.60;;;3.67;;
21281;SDS011;10800;53.096;18.328;2023-06-14T09:20:20;7.80;;;3.37;;
21281;SDS011;10800;53.096;18.328;2023-06-14T09:25:27;6.67;;;3.62;;
21281;SDS011;10800;53.096;18.328;2023-06-14T09:30:36;9.53;;;2.72;;
21281;SDS011;10800;53.096;18.328;2023-06-14T09:35:42;4.80;;;3.05;;
21281;SDS011;10800;53.096;18.328;2023-06-14T09:40:55;4.30;;;2.45;;
21281;SDS011;10800;53.096;18.328;2023-06-14T09:46:03;4.05;;;2.35;;
21281;SDS011;10800;53.096;18.328;2023-06-14T09:51:11;13.83;;;3.35;;
21281;SDS011;10800;53.096;18.328;2023-06-14T09:56:22;5.92;;;3.47;;
21281;SDS011;10800;53.096;18.328;2023-06-14T10:01:35;6.67;;;3.00;;
21281;SDS011;10800;53.096;18.328;2023-06-14T10:06:47;4.12;;;2.85;;
21281;SDS011;10800;53.096;18.328;2023-06-14T10:11:50;6.10;;;2.83;;
21281;SDS011;10800;53.096;18.328;2023-06-14T10:17:07;10.18;;;3.67;;
21281;SDS011;10800;53.096;18.328;2023-06-14T10:22:11;5.75;;;3.02;;
21281;SDS011;10800;53.096;18.328;2023-06-14T10:27:18;7.30;;;3.05;;
21281;SDS011;10800;53.096;18.328;2023-06-14T10:32:25;6.00;;;3.15;;
21281;SDS011;10800;53.096;18.328;2023-06-14T10:37:32;8.60;;;4.08;;
21281;SDS011;10800;53.096;18.328;2023-06-14T10:42:39;12.55;;;3.62;;
21281;SDS011;10800;53.096;18.328;2023-06-14T10:47:48;7.90;;;4.17;;
21281;SDS011;10800;53.096;18.328;2023-06-14T10:52:55;7.08;;;3.92;;
21281;SDS011;10800;53.096;18.328;2023-06-14T10:58:01;6.28;;;3.30;;
21281;SDS011;10800;53.096;18.328;2023-06-14T11:13:47;3.42;;;2.40;;
21281;SDS011;10800;53.096;18.328;2023-06-14T11:18:53;5.00;;;3.15;;
21281;SDS011;10800;53.096;18.328;2023-06-14T11:23:59;5.97;;;2.72;;
21281;SDS011;10800;53.096;18.328;2023-06-14T11:29:15;4.53;;;2.30;;
21281;SDS011;10800;53.096;18.328;2023-06-14T11:34:21;4.20;;;2.72;;
21281;SDS011;10800;53.096;18.328;2023-06-14T11:39:29;3.72;;;2.58;;
21281;SDS011;10800;53.096;18.328;2023-06-14T11:44:34;8.18;;;2.98;;
21281;SDS011;10800;53.096;18.328;2023-06-14T11:49:43;3.33;;;2.47;;
21281;SDS011;10800;53.096;18.328;2023-06-14T11:54:50;3.10;;;2.00;;
21281;SDS011;10800;53.096;18.328;2023-06-14T11:59:55;3.98;;;2.05;;
21281;SDS011;10800;53.096;18.328;2023-06-14T12:05:05;3.50;;;2.22;;
21281;SDS011;10800;53.096;18.328;2023-06-14T12:10:14;2.65;;;1.55;;
21281;SDS011;10800;53.096;18.328;2023-06-14T12:15:24;5.78;;;3.00;;
21281;SDS011;10800;53.096;18.328;2023-06-14T12:20:32;3.30;;;2.12;;
21281;SDS011;10800;53.096;18.328;2023-06-14T12:25:40;7.67;;;2.08;;
21281;SDS011;10800;53.096;18.328;2023-06-14T12:30:48;11.53;;;2.27;;
21281;SDS011;10800;53.096;18.328;2023-06-14T12:35:56;3.33;;;2.20;;
21281;SDS011;10800;53.096;18.328;2023-06-14T12:41:02;5.30;;;1.90;;
21281;SDS011;10800;53.096;18.328;2023-06-14T12:46:08;4.78;;;2.65;;
21281;SDS011;10800;53.096;18.328;2023-06-14T12:51:14;5.50;;;2.85;;
21281;SDS011;10800;53.096;18.328;2023-06-14T12:56:20;5.20;;;2.30;;
21281;SDS011;10800;53.096;18.328;2023-06-14T13:01:27;10.60;;;2.87;;
21281;SDS011;10800;53.096;18.328;2023-06-14T13:06:33;6.05;;;2.92;;
21281;SDS011;10800;53.096;18.328;2023-06-14T13:11:38;5.05;;;2.20;;
21281;SDS011;10800;53.096;18.328;2023-06-14T13:16:44;9.55;;;2.42;;
21281;SDS011;10800;53.096;18.328;2023-06-14T13:21:49;3.27;;;2.17;;
21281;SDS011;10800;53.096;18.328;2023-06-14T13:26:57;3.72;;;2.15;;
21281;SDS011;10800;53.096;18.328;2023-06-14T13:32:03;7.97;;;2.22;;
21281;SDS011;10800;53.096;18.328;2023-06-14T13:41:28;3.77;;;1.67;;
21281;SDS011;10800;53.096;18.328;2023-06-14T13:46:36;2.15;;;1.57;;
21281;SDS011;10800;53.096;18.328;2023-06-14T13:51:46;1.98;;;1.10;;
21281;SDS011;10800;53.096;18.328;2023-06-14T13:56:52;2.50;;;1.55;;
21281;SDS011;10800;53.096;18.328;2023-06-14T14:01:58;3.97;;;1.37;;
21281;SDS011;10800;53.096;18.328;2023-06-14T14:07:04;3.25;;;1.25;;
21281;SDS011;10800;53.096;18.328;2023-06-14T14:12:11;2.40;;;1.40;;
21281;SDS011;10800;53.096;18.328;2023-06-14T14:17:18;2.58;;;1.15;;
21281;SDS011;10800;53.096;18.328;2023-06-14T14:22:23;1.83;;;1.10;;
21281;SDS011;10800;53.096;18.328;2023-06-14T14:27:33;4.17;;;1.50;;
21281;SDS011;10800;53.096;18.328;2023-06-14T14:32:39;2.07;;;1.60;;
21281;SDS011;10800;53.096;18.328;2023-06-14T14:37:45;2.23;;;1.40;;
21281;SDS011;10800;53.096;18.328;2023-06-14T14:42:51;3.43;;;1.93;;
21281;SDS011;10800;53.096;18.328;2023-06-14T14:47:56;3.30;;;1.87;;
21281;SDS011;10800;53.096;18.328;2023-06-14T14:53:02;2.17;;;1.63;;
21281;SDS011;10800;53.096;18.328;2023-06-14T14:58:07;12.20;;;1.70;;
21281;SDS011;10800;53.096;18.328;2023-06-14T15:03:13;16.30;;;2.47;;
21281;SDS011;10800;53.096;18.328;2023-06-14T15:08:19;11.70;;;3.00;;
21281;SDS011;10800;53.096;18.328;2023-06-14T15:13:25;17.87;;;7.40;;
21281;SDS011;10800;53.096;18.328;2023-06-14T15:18:32;15.07;;;7.07;;
21281;SDS011;10800;53.096;18.328;2023-06-14T15:23:39;7.60;;;4.60;;
21281;SDS011;10800;53.096;18.328;2023-06-14T15:28:50;3.50;;;2.60;;
21281;SDS011;10800;53.096;18.328;2023-06-14T15:33:55;8.23;;;2.50;;
21281;SDS011;10800;53.096;18.328;2023-06-14T15:39:01;5.50;;;2.00;;
21281;SDS011;10800;53.096;18.328;2023-06-14T15:44:07;3.47;;;2.40;;
21281;SDS011;10800;53.096;18.328;2023-06-14T15:49:13;4.40;;;2.43;;
21281;SDS011;10800;53.096;18.328;2023-06-14T15:54:19;4.93;;;2.20;;
21281;SDS011;10800;53.096;18.328;2023-06-14T15:59:28;15.53;;;6.60;;
21281;SDS011;10800;53.096;18.328;2023-06-14T16:04:33;23.57;;;7.93;;
21281;SDS011;10800;53.096;18.328;2023-06-14T16:09:39;10.50;;;4.73;;
21281;SDS011;10800;53.096;18.328;2023-06-14T16:14:44;9.67;;;4.90;;
21281;SDS011;10800;53.096;18.328;2023-06-14T16:19:49;11.70;;;5.13;;
21281;SDS011;10800;53.096;18.328;2023-06-14T16:24:55;5.87;;;4.10;;
21281;SDS011;10800;53.096;18.328;2023-06-14T16:30:00;9.77;;;5.30;;
21281;SDS011;10800;53.096;18.328;2023-06-14T16:35:12;7.10;;;4.27;;
21281;SDS011;10800;53.096;18.328;2023-06-14T16:40:18;9.80;;;5.33;;
21281;SDS011;10800;53.096;18.328;2023-06-14T16:45:24;9.63;;;4.47;;
21281;SDS011;10800;53.096;18.328;2023-06-14T16:50:30;4.30;;;3.13;;
21281;SDS011;10800;53.096;18.328;2023-06-14T16:55:38;10.17;;;4.37;;
21281;SDS011;10800;53.096;18.328;2023-06-14T17:00:45;3.93;;;3.10;;
21281;SDS011;10800;53.096;18.328;2023-06-14T17:05:56;10.20;;;4.60;;
21281;SDS011;10800;53.096;18.328;2023-06-14T17:11:03;8.30;;;3.90;;
21281;SDS011;10800;53.096;18.328;2023-06-14T17:16:08;7.80;;;3.23;;
21281;SDS011;10800;53.096;18.328;2023-06-14T17:21:16;8.80;;;3.80;;
21281;SDS011;10800;53.096;18.328;2023-06-14T17:26:21;8.13;;;3.27;;
21281;SDS011;10800;53.096;18.328;2023-06-14T17:31:27;8.07;;;3.50;;
21281;SDS011;10800;53.096;18.328;2023-06-14T17:36:32;8.57;;;4.20;;
21281;SDS011;10800;53.096;18.328;2023-06-14T17:41:38;8.13;;;4.63;;
21281;SDS011;10800;53.096;18.328;2023-06-14T17:46:46;5.90;;;4.07;;
21281;SDS011;10800;53.096;18.328;2023-06-14T17:51:52;8.23;;;4.03;;
21281;SDS011;10800;53.096;18.328;2023-06-14T17:56:58;7.80;;;4.17;;
21281;SDS011;10800;53.096;18.328;2023-06-14T18:02:04;5.70;;;3.77;;
21281;SDS011;10800;53.096;18.328;2023-06-14T18:07:10;6.70;;;3.40;;
21281;SDS011;10800;53.096;18.328;2023-06-14T18:12:15;6.13;;;3.20;;
21281;SDS011;10800;53.096;18.328;2023-06-14T18:17:21;5.70;;;4.10;;
21281;SDS011;10800;53.096;18.328;2023-06-14T18:22:27;29.60;;;11.17;;
21281;SDS011;10800;53.096;18.328;2023-06-14T18:27:32;10.00;;;6.30;;
21281;SDS011;10800;53.096;18.328;2023-06-14T18:32:38;10.80;;;4.90;;
21281;SDS011;10800;53.096;18.328;2023-06-14T18:37:45;5.00;;;3.60;;
21281;SDS011;10800;53.096;18.328;2023-06-14T18:42:51;7.03;;;3.93;;
21281;SDS011;10800;53.096;18.328;2023-06-14T18:47:57;5.60;;;3.70;;
21281;SDS011;10800;53.096;18.328;2023-06-14T18:53:03;7.10;;;4.20;;
21281;SDS011;10800;53.096;18.328;2023-06-14T18:58:16;6.87;;;4.33;;
21281;SDS011;10800;53.096;18.328;2023-06-14T19:03:23;7.53;;;4.40;;
21281;SDS011;10800;53.096;18.328;2023-06-14T19:08:33;7.40;;;4.53;;
21281;SDS011;10800;53.096;18.328;2023-06-14T19:13:38;18.03;;;8.67;;
21281;SDS011;10800;53.096;18.328;2023-06-14T19:18:44;24.43;;;10.90;;
21281;SDS011;10800;53.096;18.328;2023-06-14T19:23:50;33.60;;;14.03;;
21281;SDS011;10800;53.096;18.328;2023-06-14T19:28:57;25.30;;;10.60;;
21281;SDS011;10800;53.096;18.328;2023-06-14T19:34:02;12.07;;;6.37;;
21281;SDS011;10800;53.096;18.328;2023-06-14T19:39:08;25.27;;;10.57;;
21281;SDS011;10800;53.096;18.328;2023-06-14T19:44:13;12.60;;;7.30;;
21281;SDS011;10800;53.096;18.328;2023-06-14T19:49:22;17.97;;;7.83;;
21281;SDS011;10800;53.096;18.328;2023-06-14T19:54:29;17.47;;;6.57;;
21281;SDS011;10800;53.096;18.328;2023-06-14T19:59:34;11.10;;;5.20;;
21281;SDS011;10800;53.096;18.328;2023-06-14T20:04:40;12.83;;;5.03;;
21281;SDS011;10800;53.096;18.328;2023-06-14T20:09:45;7.83;;;4.43;;
21281;SDS011;10800;53.096;18.328;2023-06-14T20:14:51;11.17;;;5.13;;
21281;SDS011;10800;53.096;18.328;2023-06-14T20:19:56;7.13;;;4.57;;
21281;SDS011;10800;53.096;18.328;2023-06-14T20:25:02;7.87;;;4.83;;
21281;SDS011;10800;53.096;18.328;2023-06-14T20:30:11;7.47;;;4.10;;
21281;SDS011;10800;53.096;18.328;2023-06-14T20:35:17;6.87;;;3.77;;
21281;SDS011;10800;53.096;18.328;2023-06-14T20:40:22;5.67;;;3.50;;
21281;SDS011;10800;53.096;18.328;2023-06-14T20:45:29;6.03;;;3.77;;
21281;SDS011;10800;53.096;18.328;2023-06-14T20:50:36;10.33;;;3.07;;
21281;SDS011;10800;53.096;18.328;2023-06-14T20:55:42;10.87;;;3.80;;
21281;SDS011;10800;53.096;18.328;2023-06-14T21:00:48;4.67;;;3.27;;
21281;SDS011;10800;53.096;18.328;2023-06-14T21:05:55;3.63;;;2.67;;
21281;SDS011;10800;53.096;18.328;2023-06-14T21:11:02;10.30;;;3.77;;
21281;SDS011;10800;53.096;18.328;2023-06-14T21:16:07;5.27;;;3.17;;
21281;SDS011;10800;53.096;18.328;2023-06-14T21:21:13;6.37;;;2.50;;
21281;SDS011;10800;53.096;18.328;2023-06-14T21:26:18;3.83;;;2.43;;
21281;SDS011;10800;53.096;18.328;2023-06-14T21:31:25;6.10;;;3.57;;
21281;SDS011;10800;53.096;18.328;2023-06-14T21:36:31;7.63;;;4.07;;
21281;SDS011;10800;53.096;18.328;2023-06-14T21:41:38;4.67;;;2.63;;
21281;SDS011;10800;53.096;18.328;2023-06-14T21:46:44;8.43;;;3.53;;
21281;SDS011;10800;53.096;18.328;2023-06-14T21:51:50;5.37;;;3.30;;
21281;SDS011;10800;53.096;18.328;2023-06-14T21:56:55;4.57;;;2.77;;
21281;SDS011;10800;53.096;18.328;2023-06-14T22:02:01;3.83;;;3.03;;
21281;SDS011;10800;53.096;18.328;2023-06-14T22:07:06;5.23;;;3.30;;
21281;SDS011;10800;53.096;18.328;2023-06-14T22:12:13;10.27;;;3.10;;
21281;SDS011;10800;53.096;18.328;2023-06-14T22:17:20;3.70;;;3.20;;
21281;SDS011;10800;53.096;18.328;2023-06-14T22:22:26;5.70;;;3.70;;
21281;SDS011;10800;53.096;18.328;2023-06-14T22:27:32;5.30;;;3.00;;
21281;SDS011;10800;53.096;18.328;2023-06-14T22:32:40;5.93;;;2.63;;
21281;SDS011;10800;53.096;18.328;2023-06-14T22:37:47;4.17;;;2.90;;
21281;SDS011;10800;53.096;18.328;2023-06-14T22:42:52;7.37;;;3.00;;
21281;SDS011;10800;53.096;18.328;2023-06-14T22:48:00;7.43;;;3.53;;
21281;SDS011;10800;53.096;18.328;2023-06-14T22:53:05;7.03;;;3.33;;
21281;SDS011;10800;53.096;18.328;2023-06-14T22:58:12;4.00;;;3.07;;
21281;SDS011;10800;53.096;18.328;2023-06-14T23:03:18;4.40;;;3.00;;
21281;SDS011;10800;53.096;18.328;2023-06-14T23:08:24;4.80;;;3.10;;
21281;SDS011;10800;53.096;18.328;2023-06-14T23:13:30;3.90;;;2.67;;
21281;SDS011;10800;53.096;18.328;2023-06-14T23:18:36;3.17;;;2.87;;
21281;SDS011;10800;53.096;18.328;2023-06-14T23:23:45;7.07;;;3.37;;
21281;SDS011;10800;53.096;18.328;2023-06-14T23:28:53;6.33;;;3.17;;
21281;SDS011;10800;53.096;18.328;2023-06-14T23:34:00;6.87;;;3.40;;
21281;SDS011;10800;53.096;18.328;2023-06-14T23:44:20;5.93;;;4.03;;
21281;SDS011;10800;53.096;18.328;2023-06-14T23:49:28;5.80;;;3.50;;
21281;SDS011;10800;53.096;18.328;2023-06-14T23:54:33;5.50;;;2.47;;
21281;SDS011;10800;53.096;18.328;2023-06-14T23:59:40;9.03;;;3.23;;
